Archbold, Ohio
Current Conditions -  °F | °C
As of 2:15 PM on Thursday 18 Dec 2014 (Local Time) from KUSE Reporting Station
Overcast Overcast  
Wind Chill: 21°   Ceiling: 1500
Heat Index: 30°   Visibility: 10mi
Dew Point: 27°   Wind: 12mph
Humidity: 86%   Direction: 270°W
Pressure: 30.18"   Gusts: NA
Location:  41.52°N, 84.31°W
Report Text: KUSE 181915Z AUTO 27010KT 10SM BKN015 OVC023 M01/M03 A3018 RMK AO2
Loading
Personal Weather Stations






























Interactive Weather Map New forecast layout! Learn more

10-Day Weather Forecast

Advertisements
Track Severe Weather on mobile